sensor_id;sensor_type;location;lat;lon;timestamp;P1;durP1;ratioP1;P2;durP2;ratioP2
78308;SDS011;67566;42.022;21.356;2023-04-02T00:09:03;7.00;;;4.18;;
78308;SDS011;67566;42.022;21.356;2023-04-02T00:11:47;7.60;;;5.47;;
78308;SDS011;67566;42.022;21.356;2023-04-02T00:14:14;6.90;;;5.15;;
78308;SDS011;67566;42.022;21.356;2023-04-02T00:16:58;9.07;;;4.65;;
78308;SDS011;67566;42.022;21.356;2023-04-02T00:22:17;7.47;;;4.68;;
78308;SDS011;67566;42.022;21.356;2023-04-02T00:24:44;8.43;;;5.85;;
78308;SDS011;67566;42.022;21.356;2023-04-02T00:27:10;7.18;;;5.22;;
78308;SDS011;67566;42.022;21.356;2023-04-02T00:29:44;9.15;;;5.53;;
78308;SDS011;67566;42.022;21.356;2023-04-02T00:32:16;6.10;;;4.20;;
78308;SDS011;67566;42.022;21.356;2023-04-02T00:34:46;5.07;;;4.10;;
78308;SDS011;67566;42.022;21.356;2023-04-02T00:37:17;6.80;;;4.60;;
78308;SDS011;67566;42.022;21.356;2023-04-02T00:39:48;8.25;;;5.65;;
78308;SDS011;67566;42.022;21.356;2023-04-02T00:42:15;10.07;;;5.53;;
78308;SDS011;67566;42.022;21.356;2023-04-02T00:44:42;7.60;;;4.55;;
78308;SDS011;67566;42.022;21.356;2023-04-02T00:49:42;8.82;;;4.65;;
78308;SDS011;67566;42.022;21.356;2023-04-02T00:52:12;5.75;;;4.55;;
78308;SDS011;67566;42.022;21.356;2023-04-02T00:54:42;7.10;;;4.50;;
78308;SDS011;67566;42.022;21.356;2023-04-02T00:57:16;7.22;;;4.82;;
78308;SDS011;67566;42.022;21.356;2023-04-02T00:59:57;8.45;;;5.07;;
78308;SDS011;67566;42.022;21.356;2023-04-02T01:02:40;6.25;;;3.85;;
78308;SDS011;67566;42.022;21.356;2023-04-02T01:08:02;8.30;;;4.60;;
78308;SDS011;67566;42.022;21.356;2023-04-02T01:13:50;6.65;;;4.03;;
78308;SDS011;67566;42.022;21.356;2023-04-02T01:16:19;7.28;;;4.93;;
78308;SDS011;67566;42.022;21.356;2023-04-02T01:21:36;5.93;;;4.32;;
78308;SDS011;67566;42.022;21.356;2023-04-02T01:24:11;7.57;;;4.80;;
78308;SDS011;67566;42.022;21.356;2023-04-02T01:29:27;5.75;;;3.90;;
78308;SDS011;67566;42.022;21.356;2023-04-02T01:31:54;7.05;;;4.40;;
78308;SDS011;67566;42.022;21.356;2023-04-02T01:34:24;6.35;;;4.35;;
78308;SDS011;67566;42.022;21.356;2023-04-02T01:42:37;5.10;;;3.88;;
78308;SDS011;67566;42.022;21.356;2023-04-02T01:45:20;5.13;;;3.58;;
78308;SDS011;67566;42.022;21.356;2023-04-02T01:47:47;5.50;;;4.10;;
78308;SDS011;67566;42.022;21.356;2023-04-02T01:53:03;5.80;;;3.65;;
78308;SDS011;67566;42.022;21.356;2023-04-02T01:55:48;5.55;;;4.18;;
78308;SDS011;67566;42.022;21.356;2023-04-02T01:58:23;6.28;;;3.90;;
78308;SDS011;67566;42.022;21.356;2023-04-02T02:03:29;7.93;;;4.50;;
78308;SDS011;67566;42.022;21.356;2023-04-02T02:05:56;8.38;;;5.50;;
78308;SDS011;67566;42.022;21.356;2023-04-02T02:08:28;7.47;;;5.40;;
78308;SDS011;67566;42.022;21.356;2023-04-02T02:11:02;5.97;;;4.75;;
78308;SDS011;67566;42.022;21.356;2023-04-02T02:13:28;10.60;;;5.35;;
78308;SDS011;67566;42.022;21.356;2023-04-02T02:15:56;6.97;;;4.85;;
78308;SDS011;67566;42.022;21.356;2023-04-02T02:18:23;6.72;;;5.28;;
78308;SDS011;67566;42.022;21.356;2023-04-02T02:20:51;6.28;;;4.22;;
78308;SDS011;67566;42.022;21.356;2023-04-02T02:23:18;6.93;;;5.13;;
78308;SDS011;67566;42.022;21.356;2023-04-02T02:25:44;5.72;;;4.03;;
78308;SDS011;67566;42.022;21.356;2023-04-02T02:33:41;8.23;;;4.57;;
78308;SDS011;67566;42.022;21.356;2023-04-02T02:41:44;7.00;;;4.30;;
78308;SDS011;67566;42.022;21.356;2023-04-02T02:44:36;7.88;;;4.70;;
78308;SDS011;67566;42.022;21.356;2023-04-02T02:50:05;8.48;;;4.30;;
78308;SDS011;67566;42.022;21.356;2023-04-02T02:52:38;6.57;;;4.35;;
78308;SDS011;67566;42.022;21.356;2023-04-02T02:57:36;12.75;;;6.03;;
78308;SDS011;67566;42.022;21.356;2023-04-02T03:00:08;7.45;;;4.72;;
78308;SDS011;67566;42.022;21.356;2023-04-02T03:02:37;10.07;;;4.65;;
78308;SDS011;67566;42.022;21.356;2023-04-02T03:05:05;10.18;;;5.35;;
78308;SDS011;67566;42.022;21.356;2023-04-02T03:07:31;8.45;;;5.80;;
78308;SDS011;67566;42.022;21.356;2023-04-02T03:10:05;6.72;;;4.13;;
78308;SDS011;67566;42.022;21.356;2023-04-02T03:15:50;8.18;;;5.88;;
78308;SDS011;67566;42.022;21.356;2023-04-02T03:18:30;15.68;;;8.50;;
78308;SDS011;67566;42.022;21.356;2023-04-02T03:21:01;8.60;;;5.20;;
78308;SDS011;67566;42.022;21.356;2023-04-02T03:23:53;8.65;;;5.10;;
78308;SDS011;67566;42.022;21.356;2023-04-02T03:26:25;7.47;;;4.53;;
78308;SDS011;67566;42.022;21.356;2023-04-02T03:29:01;8.02;;;4.97;;
78308;SDS011;67566;42.022;21.356;2023-04-02T03:31:36;7.40;;;4.68;;
78308;SDS011;67566;42.022;21.356;2023-04-02T03:36:40;6.93;;;5.32;;
78308;SDS011;67566;42.022;21.356;2023-04-02T03:41:49;6.72;;;5.68;;
78308;SDS011;67566;42.022;21.356;2023-04-02T03:44:20;12.30;;;8.38;;
78308;SDS011;67566;42.022;21.356;2023-04-02T03:46:53;10.10;;;6.97;;
78308;SDS011;67566;42.022;21.356;2023-04-02T03:52:11;6.70;;;4.95;;
78308;SDS011;67566;42.022;21.356;2023-04-02T03:54:39;8.40;;;5.07;;
78308;SDS011;67566;42.022;21.356;2023-04-02T03:57:08;5.88;;;4.30;;
78308;SDS011;67566;42.022;21.356;2023-04-02T03:59:48;38.72;;;16.00;;
78308;SDS011;67566;42.022;21.356;2023-04-02T04:02:34;22.75;;;11.80;;
78308;SDS011;67566;42.022;21.356;2023-04-02T04:05:05;19.83;;;10.02;;
78308;SDS011;67566;42.022;21.356;2023-04-02T04:07:43;22.23;;;10.35;;
78308;SDS011;67566;42.022;21.356;2023-04-02T04:10:13;9.30;;;6.43;;
78308;SDS011;67566;42.022;21.356;2023-04-02T04:12:47;17.27;;;9.20;;
78308;SDS011;67566;42.022;21.356;2023-04-02T04:15:16;17.77;;;10.18;;
78308;SDS011;67566;42.022;21.356;2023-04-02T04:17:48;10.98;;;8.30;;
78308;SDS011;67566;42.022;21.356;2023-04-02T04:20:41;14.00;;;6.50;;
78308;SDS011;67566;42.022;21.356;2023-04-02T04:23:29;8.98;;;6.57;;
78308;SDS011;67566;42.022;21.356;2023-04-02T04:31:26;170.52;;;72.65;;
78308;SDS011;67566;42.022;21.356;2023-04-02T04:33:58;137.73;;;62.17;;
78308;SDS011;67566;42.022;21.356;2023-04-02T04:36:32;25.88;;;14.35;;
78308;SDS011;67566;42.022;21.356;2023-04-02T04:39:07;15.23;;;9.23;;
78308;SDS011;67566;42.022;21.356;2023-04-02T04:41:41;12.65;;;8.57;;
78308;SDS011;67566;42.022;21.356;2023-04-02T04:47:14;28.50;;;17.65;;
78308;SDS011;67566;42.022;21.356;2023-04-02T04:49:46;17.73;;;12.75;;
78308;SDS011;67566;42.022;21.356;2023-04-02T04:52:28;14.05;;;9.68;;
78308;SDS011;67566;42.022;21.356;2023-04-02T04:54:59;10.75;;;8.45;;
78308;SDS011;67566;42.022;21.356;2023-04-02T04:57:35;11.73;;;8.52;;
78308;SDS011;67566;42.022;21.356;2023-04-02T05:00:09;11.98;;;7.13;;
78308;SDS011;67566;42.022;21.356;2023-04-02T05:05:35;10.98;;;7.55;;
78308;SDS011;67566;42.022;21.356;2023-04-02T05:08:25;8.85;;;5.78;;
78308;SDS011;67566;42.022;21.356;2023-04-02T05:10:55;9.57;;;6.72;;
78308;SDS011;67566;42.022;21.356;2023-04-02T05:16:27;10.10;;;6.57;;
78308;SDS011;67566;42.022;21.356;2023-04-02T05:21:46;9.95;;;7.32;;
78308;SDS011;67566;42.022;21.356;2023-04-02T05:24:39;10.63;;;7.13;;
78308;SDS011;67566;42.022;21.356;2023-04-02T05:27:20;13.02;;;6.50;;
78308;SDS011;67566;42.022;21.356;2023-04-02T05:29:59;6.35;;;5.35;;
78308;SDS011;67566;42.022;21.356;2023-04-02T05:33:02;10.05;;;6.00;;
78308;SDS011;67566;42.022;21.356;2023-04-02T05:35:49;7.20;;;5.80;;
78308;SDS011;67566;42.022;21.356;2023-04-02T05:38:21;6.10;;;5.05;;
78308;SDS011;67566;42.022;21.356;2023-04-02T05:40:53;7.45;;;5.05;;
78308;SDS011;67566;42.022;21.356;2023-04-02T05:43:46;6.40;;;4.82;;
78308;SDS011;67566;42.022;21.356;2023-04-02T05:46:17;7.78;;;5.85;;
78308;SDS011;67566;42.022;21.356;2023-04-02T05:48:49;9.38;;;5.90;;
78308;SDS011;67566;42.022;21.356;2023-04-02T05:51:22;9.48;;;5.68;;
78308;SDS011;67566;42.022;21.356;2023-04-02T05:53:56;9.48;;;5.25;;
78308;SDS011;67566;42.022;21.356;2023-04-02T05:56:29;8.57;;;6.00;;
78308;SDS011;67566;42.022;21.356;2023-04-02T05:58:59;9.57;;;5.68;;
78308;SDS011;67566;42.022;21.356;2023-04-02T06:01:37;7.28;;;5.35;;
78308;SDS011;67566;42.022;21.356;2023-04-02T06:04:23;11.60;;;6.57;;
78308;SDS011;67566;42.022;21.356;2023-04-02T06:07:22;9.18;;;7.05;;
78308;SDS011;67566;42.022;21.356;2023-04-02T06:12:45;6.82;;;4.95;;
78308;SDS011;67566;42.022;21.356;2023-04-02T06:15:16;7.57;;;4.75;;
78308;SDS011;67566;42.022;21.356;2023-04-02T06:17:50;6.45;;;5.40;;
78308;SDS011;67566;42.022;21.356;2023-04-02T06:20:22;9.10;;;5.80;;
78308;SDS011;67566;42.022;21.356;2023-04-02T06:22:54;7.45;;;5.35;;
78308;SDS011;67566;42.022;21.356;2023-04-02T06:25:25;9.38;;;4.97;;
78308;SDS011;67566;42.022;21.356;2023-04-02T06:27:56;7.75;;;4.72;;
78308;SDS011;67566;42.022;21.356;2023-04-02T06:30:24;9.95;;;6.00;;
78308;SDS011;67566;42.022;21.356;2023-04-02T06:32:56;7.65;;;4.55;;
78308;SDS011;67566;42.022;21.356;2023-04-02T06:35:21;5.88;;;4.30;;
78308;SDS011;67566;42.022;21.356;2023-04-02T06:37:47;10.95;;;7.03;;
78308;SDS011;67566;42.022;21.356;2023-04-02T06:42:42;9.53;;;6.13;;
78308;SDS011;67566;42.022;21.356;2023-04-02T06:45:13;11.68;;;5.88;;
78308;SDS011;67566;42.022;21.356;2023-04-02T06:47:47;6.22;;;5.25;;
78308;SDS011;67566;42.022;21.356;2023-04-02T06:50:21;6.47;;;4.10;;
78308;SDS011;67566;42.022;21.356;2023-04-02T06:52:54;7.93;;;5.47;;
78308;SDS011;67566;42.022;21.356;2023-04-02T06:55:46;14.55;;;8.48;;
78308;SDS011;67566;42.022;21.356;2023-04-02T06:58:16;16.58;;;8.15;;
78308;SDS011;67566;42.022;21.356;2023-04-02T07:00:44;12.15;;;6.65;;
78308;SDS011;67566;42.022;21.356;2023-04-02T07:05:46;11.77;;;6.75;;
78308;SDS011;67566;42.022;21.356;2023-04-02T07:08:11;9.27;;;7.00;;
78308;SDS011;67566;42.022;21.356;2023-04-02T07:10:37;8.27;;;5.82;;
78308;SDS011;67566;42.022;21.356;2023-04-02T07:13:02;9.40;;;5.80;;
78308;SDS011;67566;42.022;21.356;2023-04-02T07:15:29;14.80;;;11.70;;
78308;SDS011;67566;42.022;21.356;2023-04-02T07:17:57;8.23;;;5.25;;
78308;SDS011;67566;42.022;21.356;2023-04-02T07:20:33;8.20;;;5.93;;
78308;SDS011;67566;42.022;21.356;2023-04-02T07:23:02;7.20;;;4.72;;
78308;SDS011;67566;42.022;21.356;2023-04-02T07:25:28;7.85;;;5.28;;
78308;SDS011;67566;42.022;21.356;2023-04-02T07:27:54;7.65;;;4.80;;
78308;SDS011;67566;42.022;21.356;2023-04-02T07:30:20;8.35;;;4.85;;
78308;SDS011;67566;42.022;21.356;2023-04-02T07:32:46;8.32;;;4.22;;
78308;SDS011;67566;42.022;21.356;2023-04-02T07:35:12;7.32;;;4.88;;
78308;SDS011;67566;42.022;21.356;2023-04-02T07:37:37;9.25;;;4.85;;
78308;SDS011;67566;42.022;21.356;2023-04-02T07:40:14;8.77;;;5.35;;
78308;SDS011;67566;42.022;21.356;2023-04-02T07:42:42;8.02;;;5.15;;
78308;SDS011;67566;42.022;21.356;2023-04-02T07:45:08;6.38;;;4.25;;
78308;SDS011;67566;42.022;21.356;2023-04-02T07:47:33;5.57;;;4.80;;
78308;SDS011;67566;42.022;21.356;2023-04-02T07:49:59;9.45;;;5.78;;
78308;SDS011;67566;42.022;21.356;2023-04-02T07:52:24;7.53;;;5.93;;
78308;SDS011;67566;42.022;21.356;2023-04-02T07:54:50;9.00;;;5.45;;
78308;SDS011;67566;42.022;21.356;2023-04-02T07:57:15;7.47;;;4.03;;
78308;SDS011;67566;42.022;21.356;2023-04-02T07:59:41;7.28;;;5.05;;
78308;SDS011;67566;42.022;21.356;2023-04-02T08:02:13;7.20;;;5.38;;
78308;SDS011;67566;42.022;21.356;2023-04-02T08:04:44;8.88;;;5.85;;
78308;SDS011;67566;42.022;21.356;2023-04-02T08:07:09;5.30;;;4.05;;
78308;SDS011;67566;42.022;21.356;2023-04-02T08:09:35;7.07;;;4.50;;
78308;SDS011;67566;42.022;21.356;2023-04-02T08:12:00;9.07;;;5.22;;
78308;SDS011;67566;42.022;21.356;2023-04-02T08:14:25;6.18;;;4.40;;
78308;SDS011;67566;42.022;21.356;2023-04-02T08:16:52;6.65;;;5.00;;
78308;SDS011;67566;42.022;21.356;2023-04-02T08:19:20;6.53;;;4.43;;
78308;SDS011;67566;42.022;21.356;2023-04-02T08:21:45;8.68;;;5.63;;
78308;SDS011;67566;42.022;21.356;2023-04-02T08:24:14;6.47;;;4.38;;
78308;SDS011;67566;42.022;21.356;2023-04-02T08:26:43;7.82;;;5.55;;
78308;SDS011;67566;42.022;21.356;2023-04-02T08:29:09;7.25;;;4.28;;
78308;SDS011;67566;42.022;21.356;2023-04-02T08:31:34;7.07;;;4.63;;
78308;SDS011;67566;42.022;21.356;2023-04-02T08:34:00;6.75;;;4.05;;
78308;SDS011;67566;42.022;21.356;2023-04-02T08:36:27;6.75;;;3.83;;
78308;SDS011;67566;42.022;21.356;2023-04-02T08:38:57;7.72;;;5.50;;
78308;SDS011;67566;42.022;21.356;2023-04-02T08:41:23;6.13;;;4.47;;
78308;SDS011;67566;42.022;21.356;2023-04-02T08:46:43;5.80;;;3.90;;
78308;SDS011;67566;42.022;21.356;2023-04-02T08:49:11;5.80;;;4.70;;
78308;SDS011;67566;42.022;21.356;2023-04-02T08:51:41;6.20;;;3.95;;
78308;SDS011;67566;42.022;21.356;2023-04-02T08:56:54;5.45;;;3.75;;
78308;SDS011;67566;42.022;21.356;2023-04-02T08:59:34;3.55;;;2.83;;
78308;SDS011;67566;42.022;21.356;2023-04-02T09:04:30;4.22;;;2.90;;
78308;SDS011;67566;42.022;21.356;2023-04-02T09:06:57;5.95;;;3.70;;
78308;SDS011;67566;42.022;21.356;2023-04-02T09:09:24;5.07;;;3.17;;
78308;SDS011;67566;42.022;21.356;2023-04-02T09:11:57;4.57;;;3.28;;
78308;SDS011;67566;42.022;21.356;2023-04-02T09:14:41;4.53;;;3.22;;
78308;SDS011;67566;42.022;21.356;2023-04-02T09:17:16;4.93;;;3.42;;
78308;SDS011;67566;42.022;21.356;2023-04-02T09:19:48;7.57;;;3.30;;
78308;SDS011;67566;42.022;21.356;2023-04-02T09:22:28;6.35;;;3.65;;
78308;SDS011;67566;42.022;21.356;2023-04-02T09:24:59;6.32;;;3.63;;
78308;SDS011;67566;42.022;21.356;2023-04-02T09:27:31;17.65;;;11.10;;
78308;SDS011;67566;42.022;21.356;2023-04-02T09:30:04;4.47;;;3.65;;
78308;SDS011;67566;42.022;21.356;2023-04-02T09:35:17;4.53;;;2.80;;
78308;SDS011;67566;42.022;21.356;2023-04-02T09:43:20;6.53;;;3.75;;
78308;SDS011;67566;42.022;21.356;2023-04-02T09:48:51;10.15;;;3.70;;
78308;SDS011;67566;42.022;21.356;2023-04-02T09:51:23;5.47;;;3.03;;
78308;SDS011;67566;42.022;21.356;2023-04-02T09:56:28;5.07;;;2.70;;
78308;SDS011;67566;42.022;21.356;2023-04-02T10:01:46;5.82;;;4.40;;
78308;SDS011;67566;42.022;21.356;2023-04-02T10:04:35;5.68;;;3.20;;
78308;SDS011;67566;42.022;21.356;2023-04-02T10:07:03;5.18;;;3.30;;
78308;SDS011;67566;42.022;21.356;2023-04-02T10:09:34;4.47;;;2.38;;
78308;SDS011;67566;42.022;21.356;2023-04-02T10:12:03;3.95;;;2.50;;
78308;SDS011;67566;42.022;21.356;2023-04-02T10:14:37;3.92;;;2.33;;
78308;SDS011;67566;42.022;21.356;2023-04-02T10:17:18;4.70;;;2.35;;
78308;SDS011;67566;42.022;21.356;2023-04-02T10:19:47;4.85;;;2.65;;
78308;SDS011;67566;42.022;21.356;2023-04-02T10:22:18;3.88;;;2.30;;
78308;SDS011;67566;42.022;21.356;2023-04-02T10:24:45;3.70;;;2.00;;
78308;SDS011;67566;42.022;21.356;2023-04-02T10:27:13;4.10;;;1.80;;
78308;SDS011;67566;42.022;21.356;2023-04-02T10:29:54;2.92;;;1.73;;
78308;SDS011;67566;42.022;21.356;2023-04-02T10:32:54;3.33;;;1.77;;
78308;SDS011;67566;42.022;21.356;2023-04-02T10:35:46;4.25;;;2.25;;
78308;SDS011;67566;42.022;21.356;2023-04-02T10:41:00;3.40;;;2.22;;
78308;SDS011;67566;42.022;21.356;2023-04-02T10:43:50;4.53;;;2.58;;
78308;SDS011;67566;42.022;21.356;2023-04-02T10:52:05;4.13;;;2.10;;
78308;SDS011;67566;42.022;21.356;2023-04-02T10:54:50;4.72;;;2.33;;
78308;SDS011;67566;42.022;21.356;2023-04-02T11:02:43;2.47;;;1.55;;
78308;SDS011;67566;42.022;21.356;2023-04-02T11:08:17;3.20;;;1.85;;
78308;SDS011;67566;42.022;21.356;2023-04-02T11:10:48;5.13;;;2.72;;
78308;SDS011;67566;42.022;21.356;2023-04-02T11:13:30;3.80;;;2.13;;
78308;SDS011;67566;42.022;21.356;2023-04-02T11:16:02;3.92;;;2.20;;
78308;SDS011;67566;42.022;21.356;2023-04-02T11:18:28;4.80;;;2.35;;
78308;SDS011;67566;42.022;21.356;2023-04-02T11:23:56;4.43;;;1.75;;
78308;SDS011;67566;42.022;21.356;2023-04-02T11:26:28;5.25;;;2.30;;
78308;SDS011;67566;42.022;21.356;2023-04-02T11:29:14;4.38;;;1.50;;
78308;SDS011;67566;42.022;21.356;2023-04-02T11:31:43;3.50;;;1.77;;
78308;SDS011;67566;42.022;21.356;2023-04-02T11:42:43;2.35;;;1.35;;
78308;SDS011;67566;42.022;21.356;2023-04-02T11:50:30;3.00;;;1.63;;
78308;SDS011;67566;42.022;21.356;2023-04-02T11:53:01;4.53;;;1.73;;
78308;SDS011;67566;42.022;21.356;2023-04-02T11:55:44;3.45;;;1.60;;
78308;SDS011;67566;42.022;21.356;2023-04-02T12:12:43;2.35;;;1.40;;
78308;SDS011;67566;42.022;21.356;2023-04-02T12:18:14;22.48;;;12.52;;
78308;SDS011;67566;42.022;21.356;2023-04-02T12:20:46;5.32;;;2.20;;
78308;SDS011;67566;42.022;21.356;2023-04-02T12:23:17;6.47;;;3.88;;
78308;SDS011;67566;42.022;21.356;2023-04-02T12:25:55;5.22;;;2.88;;
78308;SDS011;67566;42.022;21.356;2023-04-02T12:28:25;2.85;;;1.58;;
78308;SDS011;67566;42.022;21.356;2023-04-02T12:31:11;4.75;;;2.42;;
78308;SDS011;67566;42.022;21.356;2023-04-02T12:33:38;5.10;;;2.30;;
78308;SDS011;67566;42.022;21.356;2023-04-02T12:38:45;4.72;;;2.50;;
78308;SDS011;67566;42.022;21.356;2023-04-02T12:41:31;8.23;;;4.63;;
78308;SDS011;67566;42.022;21.356;2023-04-02T12:46:53;3.78;;;2.10;;
78308;SDS011;67566;42.022;21.356;2023-04-02T12:51:57;4.13;;;2.70;;
78308;SDS011;67566;42.022;21.356;2023-04-02T12:54:25;3.58;;;2.00;;
78308;SDS011;67566;42.022;21.356;2023-04-02T12:56:51;5.35;;;2.65;;
78308;SDS011;67566;42.022;21.356;2023-04-02T12:59:37;3.03;;;1.92;;
78308;SDS011;67566;42.022;21.356;2023-04-02T13:02:17;3.40;;;2.10;;
78308;SDS011;67566;42.022;21.356;2023-04-02T13:04:48;6.38;;;3.40;;
78308;SDS011;67566;42.022;21.356;2023-04-02T13:07:15;3.65;;;1.83;;
78308;SDS011;67566;42.022;21.356;2023-04-02T13:09:45;3.25;;;1.67;;
78308;SDS011;67566;42.022;21.356;2023-04-02T13:17:36;3.17;;;2.00;;
78308;SDS011;67566;42.022;21.356;2023-04-02T13:22:52;2.55;;;1.40;;
78308;SDS011;67566;42.022;21.356;2023-04-02T13:25:17;3.83;;;1.70;;
78308;SDS011;67566;42.022;21.356;2023-04-02T13:27:46;43.97;;;29.83;;
78308;SDS011;67566;42.022;21.356;2023-04-02T13:30:15;5.90;;;3.00;;
78308;SDS011;67566;42.022;21.356;2023-04-02T13:32:46;4.63;;;2.75;;
78308;SDS011;67566;42.022;21.356;2023-04-02T13:35:11;5.20;;;3.13;;
78308;SDS011;67566;42.022;21.356;2023-04-02T13:37:37;3.30;;;2.05;;
78308;SDS011;67566;42.022;21.356;2023-04-02T13:40:02;3.30;;;2.10;;
78308;SDS011;67566;42.022;21.356;2023-04-02T13:42:28;5.45;;;2.70;;
78308;SDS011;67566;42.022;21.356;2023-04-02T13:44:56;4.65;;;2.08;;
78308;SDS011;67566;42.022;21.356;2023-04-02T13:47:24;4.18;;;1.90;;
78308;SDS011;67566;42.022;21.356;2023-04-02T13:49:50;4.50;;;1.85;;
78308;SDS011;67566;42.022;21.356;2023-04-02T13:52:16;6.15;;;2.33;;
78308;SDS011;67566;42.022;21.356;2023-04-02T13:54:48;4.95;;;2.72;;
78308;SDS011;67566;42.022;21.356;2023-04-02T13:57:17;5.45;;;2.55;;
78308;SDS011;67566;42.022;21.356;2023-04-02T13:59:42;3.88;;;1.67;;
78308;SDS011;67566;42.022;21.356;2023-04-02T14:02:14;5.75;;;2.13;;
78308;SDS011;67566;42.022;21.356;2023-04-02T14:04:44;4.95;;;2.30;;
78308;SDS011;67566;42.022;21.356;2023-04-02T14:07:23;6.53;;;3.05;;
78308;SDS011;67566;42.022;21.356;2023-04-02T14:18:32;4.10;;;2.10;;
78308;SDS011;67566;42.022;21.356;2023-04-02T14:32:22;4.20;;;2.40;;
78308;SDS011;67566;42.022;21.356;2023-04-02T14:34:55;5.45;;;3.28;;
78308;SDS011;67566;42.022;21.356;2023-04-02T14:37:48;5.13;;;2.47;;
78308;SDS011;67566;42.022;21.356;2023-04-02T14:48:01;5.63;;;1.90;;
78308;SDS011;67566;42.022;21.356;2023-04-02T14:50:37;4.47;;;2.13;;
78308;SDS011;67566;42.022;21.356;2023-04-02T14:53:10;5.10;;;2.38;;
78308;SDS011;67566;42.022;21.356;2023-04-02T14:55:42;4.55;;;1.90;;
78308;SDS011;67566;42.022;21.356;2023-04-02T14:58:15;5.20;;;2.22;;
78308;SDS011;67566;42.022;21.356;2023-04-02T15:01:12;2.97;;;1.58;;
78308;SDS011;67566;42.022;21.356;2023-04-02T15:03:46;4.93;;;1.90;;
78308;SDS011;67566;42.022;21.356;2023-04-02T15:06:19;3.40;;;1.85;;
78308;SDS011;67566;42.022;21.356;2023-04-02T15:12:02;3.65;;;2.20;;
78308;SDS011;67566;42.022;21.356;2023-04-02T15:14:36;11.40;;;3.45;;
78308;SDS011;67566;42.022;21.356;2023-04-02T15:17:07;4.53;;;2.20;;
78308;SDS011;67566;42.022;21.356;2023-04-02T15:19:35;4.70;;;2.65;;
78308;SDS011;67566;42.022;21.356;2023-04-02T15:32:53;5.32;;;2.30;;
78308;SDS011;67566;42.022;21.356;2023-04-02T15:35:41;7.63;;;1.92;;
78308;SDS011;67566;42.022;21.356;2023-04-02T15:38:16;2.67;;;1.85;;
78308;SDS011;67566;42.022;21.356;2023-04-02T15:43:26;3.42;;;1.70;;
78308;SDS011;67566;42.022;21.356;2023-04-02T16:10:34;7.57;;;6.75;;
78308;SDS011;67566;42.022;21.356;2023-04-02T16:15:57;6.20;;;3.10;;
78308;SDS011;67566;42.022;21.356;2023-04-02T16:21:30;6.22;;;3.13;;
78308;SDS011;67566;42.022;21.356;2023-04-02T16:23:58;26.27;;;11.00;;
78308;SDS011;67566;42.022;21.356;2023-04-02T16:38:19;16.00;;;10.38;;
78308;SDS011;67566;42.022;21.356;2023-04-02T16:57:17;41.95;;;26.83;;
78308;SDS011;67566;42.022;21.356;2023-04-02T17:05:41;22.67;;;14.77;;
78308;SDS011;67566;42.022;21.356;2023-04-02T17:08:23;23.40;;;14.02;;
78308;SDS011;67566;42.022;21.356;2023-04-02T17:11:01;22.15;;;13.18;;
78308;SDS011;67566;42.022;21.356;2023-04-02T17:13:33;25.98;;;15.23;;
78308;SDS011;67566;42.022;21.356;2023-04-02T17:21:35;22.00;;;15.00;;
78308;SDS011;67566;42.022;21.356;2023-04-02T17:26:38;16.30;;;11.18;;
78308;SDS011;67566;42.022;21.356;2023-04-02T17:29:08;27.23;;;17.67;;
78308;SDS011;67566;42.022;21.356;2023-04-02T17:31:41;35.65;;;19.77;;
78308;SDS011;67566;42.022;21.356;2023-04-02T17:34:12;39.28;;;29.08;;
78308;SDS011;67566;42.022;21.356;2023-04-02T17:36:52;44.10;;;30.58;;
78308;SDS011;67566;42.022;21.356;2023-04-02T17:39:30;24.95;;;17.52;;
78308;SDS011;67566;42.022;21.356;2023-04-02T17:48:02;31.52;;;22.98;;
78308;SDS011;67566;42.022;21.356;2023-04-02T18:01:05;49.60;;;30.73;;
78308;SDS011;67566;42.022;21.356;2023-04-02T18:06:18;28.70;;;19.50;;
78308;SDS011;67566;42.022;21.356;2023-04-02T18:11:43;33.33;;;19.27;;
78308;SDS011;67566;42.022;21.356;2023-04-02T18:17:20;65.13;;;41.25;;
78308;SDS011;67566;42.022;21.356;2023-04-02T18:19:58;53.03;;;31.60;;
78308;SDS011;67566;42.022;21.356;2023-04-02T18:28:52;51.33;;;32.60;;
78308;SDS011;67566;42.022;21.356;2023-04-02T18:32:14;38.60;;;25.77;;
78308;SDS011;67566;42.022;21.356;2023-04-02T18:35:09;40.67;;;27.30;;
78308;SDS011;67566;42.022;21.356;2023-04-02T18:51:09;61.60;;;39.35;;
78308;SDS011;67566;42.022;21.356;2023-04-02T18:54:19;75.13;;;46.30;;
78308;SDS011;67566;42.022;21.356;2023-04-02T18:56:45;69.30;;;43.38;;
78308;SDS011;67566;42.022;21.356;2023-04-02T19:01:40;49.70;;;32.33;;
78308;SDS011;67566;42.022;21.356;2023-04-02T19:04:11;41.78;;;24.63;;
78308;SDS011;67566;42.022;21.356;2023-04-02T19:06:41;31.05;;;21.40;;
78308;SDS011;67566;42.022;21.356;2023-04-02T19:09:23;30.27;;;19.80;;
78308;SDS011;67566;42.022;21.356;2023-04-02T19:11:54;31.08;;;20.23;;
78308;SDS011;67566;42.022;21.356;2023-04-02T19:14:20;44.85;;;25.33;;
78308;SDS011;67566;42.022;21.356;2023-04-02T19:16:51;84.45;;;45.95;;
78308;SDS011;67566;42.022;21.356;2023-04-02T19:19:25;91.10;;;49.40;;
78308;SDS011;67566;42.022;21.356;2023-04-02T19:33:35;49.00;;;31.20;;
78308;SDS011;67566;42.022;21.356;2023-04-02T19:41:59;18.00;;;10.30;;
78308;SDS011;67566;42.022;21.356;2023-04-02T19:44:30;16.73;;;11.20;;
78308;SDS011;67566;42.022;21.356;2023-04-02T19:46:56;97.53;;;54.90;;
78308;SDS011;67566;42.022;21.356;2023-04-02T19:49:26;44.72;;;23.73;;
78308;SDS011;67566;42.022;21.356;2023-04-02T19:51:56;30.10;;;15.90;;
78308;SDS011;67566;42.022;21.356;2023-04-02T19:54:22;18.08;;;12.50;;
78308;SDS011;67566;42.022;21.356;2023-04-02T19:56:48;40.22;;;21.77;;
78308;SDS011;67566;42.022;21.356;2023-04-02T19:59:13;46.67;;;27.95;;
78308;SDS011;67566;42.022;21.356;2023-04-02T20:01:39;52.58;;;29.05;;
78308;SDS011;67566;42.022;21.356;2023-04-02T20:04:04;56.60;;;32.45;;
78308;SDS011;67566;42.022;21.356;2023-04-02T20:06:30;43.42;;;25.27;;
78308;SDS011;67566;42.022;21.356;2023-04-02T20:08:57;43.10;;;24.77;;
78308;SDS011;67566;42.022;21.356;2023-04-02T20:11:23;42.70;;;26.10;;
78308;SDS011;67566;42.022;21.356;2023-04-02T20:13:50;32.33;;;21.33;;
78308;SDS011;67566;42.022;21.356;2023-04-02T20:16:17;34.45;;;21.08;;
78308;SDS011;67566;42.022;21.356;2023-04-02T20:18:43;29.40;;;20.98;;
78308;SDS011;67566;42.022;21.356;2023-04-02T20:21:09;19.70;;;13.05;;
78308;SDS011;67566;42.022;21.356;2023-04-02T20:23:34;18.38;;;10.63;;
78308;SDS011;67566;42.022;21.356;2023-04-02T20:26:01;20.75;;;12.77;;
78308;SDS011;67566;42.022;21.356;2023-04-02T20:28:28;16.67;;;10.25;;
78308;SDS011;67566;42.022;21.356;2023-04-02T20:31:04;17.60;;;11.77;;
78308;SDS011;67566;42.022;21.356;2023-04-02T20:33:33;19.65;;;13.10;;
78308;SDS011;67566;42.022;21.356;2023-04-02T20:36:00;19.77;;;12.43;;
78308;SDS011;67566;42.022;21.356;2023-04-02T20:38:29;42.50;;;23.67;;
78308;SDS011;67566;42.022;21.356;2023-04-02T20:40:54;57.55;;;33.08;;
78308;SDS011;67566;42.022;21.356;2023-04-02T20:43:21;65.55;;;41.00;;
78308;SDS011;67566;42.022;21.356;2023-04-02T20:45:54;71.18;;;45.00;;
78308;SDS011;67566;42.022;21.356;2023-04-02T20:48:20;64.60;;;43.90;;
78308;SDS011;67566;42.022;21.356;2023-04-02T20:50:47;60.65;;;38.85;;
78308;SDS011;67566;42.022;21.356;2023-04-02T20:53:14;42.08;;;28.05;;
78308;SDS011;67566;42.022;21.356;2023-04-02T20:55:41;40.83;;;26.20;;
78308;SDS011;67566;42.022;21.356;2023-04-02T20:58:07;36.25;;;22.50;;
78308;SDS011;67566;42.022;21.356;2023-04-02T21:00:32;28.92;;;17.27;;